Time;durP1;ratioP1;P1;durP2;ratioP2;P2;SDS_P1;SDS_P2;PMS_P1;PMS_P2;Temp;Humidity;BMP_temperature;BMP_pressure;BME280_temperature;BME280_humidity;BME280_pressure;Samples;Min_cycle;Max_cycle;Signal;HPM_P1;HPM_P2
2022/10/09 00:00:03;;;;;;;;;;;;;;;13.86;66.39;101836.34;4988347;28;119377;-74
2022/10/09 00:02:37;;;;;;;;;;;;;;;13.81;66.76;101836.94;4997736;28;120254;-74
2022/10/09 00:05:03;;;;;;;;;;;;;;;13.78;66.64;101849.63;5009841;27;119482;-74
2022/10/09 00:07:29;;;;;;;;;;;;;;;13.76;66.26;101837.50;4997058;28;120415;-74
2022/10/09 00:09:54;;;;;;;;;;;;;;;13.74;66.48;101853.72;4994977;28;119648;-74
2022/10/09 00:12:20;;;;;;;;;;;;;;;13.70;66.75;101851.03;5022087;27;119835;-74
2022/10/09 00:14:45;;;;;;;;;;;;;;;13.68;66.57;101852.72;4997940;27;120602;-74
2022/10/09 00:17:11;;;;;;;;;;;;;;;13.65;66.32;101854.38;4999007;28;119826;-74
2022/10/09 00:19:36;;;;;;;;;;;;;;;13.62;66.64;101860.00;5008316;27;119750;-74
2022/10/09 00:22:02;;;;;;;;;;;;;;;13.57;66.47;101857.81;5001764;28;120303;-75
2022/10/09 00:24:27;;;;;;;;;;;;;;;13.52;66.43;101851.63;5003660;27;120340;-74
2022/10/09 00:26:53;;;;;;;;;;;;;;;13.49;66.28;101855.28;5010533;28;119699;-74
2022/10/09 00:29:18;;;;;;;;;;;;;;;13.47;66.65;101854.94;5006178;28;119617;-74
2022/10/09 00:31:44;;;;;;;;;;;;;;;13.44;66.09;101861.31;5007751;28;120170;-75
2022/10/09 00:34:10;;;;;;;;;;;;;;;13.41;66.45;101858.69;5003959;28;119853;-74
2022/10/09 00:36:42;;;;;;;;;;;;;;;13.36;66.38;101862.78;5007922;27;119806;-74
2022/10/09 00:39:08;;;;;;;;;;;;;;;13.33;66.51;101871.91;5005750;27;120104;-74
2022/10/09 00:41:34;;;;;;;;;;;;;;;13.29;66.02;101878.75;5006656;28;119516;-74
2022/10/09 00:44:01;;;;;;;;;;;;;;;13.28;66.19;101885.47;4996853;28;119491;-75
2022/10/09 00:46:40;;;;;;;;;;;;;;;13.21;66.14;101880.94;4997028;28;119835;-74
2022/10/09 00:49:15;;;;;;;;;;;;;;;13.18;66.28;101879.06;4995336;28;119818;-74
2022/10/09 00:51:47;;;;;;;;;;;;;;;13.14;66.28;101886.63;4998666;28;120887;-74
2022/10/09 00:54:14;;;;;;;;;;;;;;;13.10;66.19;101885.97;5003738;28;119750;-74
2022/10/09 00:56:40;;;;;;;;;;;;;;;13.04;65.92;101893.25;4994563;27;119876;-74
2022/10/09 00:59:09;;;;;;;;;;;;;;;12.97;66.16;101885.16;4991905;28;119914;-74
2022/10/09 01:01:35;;;;;;;;;;;;;;;12.88;65.95;101877.56;4996366;28;119992;-74
2022/10/09 01:04:00;;;;;;;;;;;;;;;12.82;65.73;101887.56;4994595;28;119627;-74
2022/10/09 01:06:26;;;;;;;;;;;;;;;12.75;66.03;101885.75;5004423;28;119151;-74
2022/10/09 01:09:00;;;;;;;;;;;;;;;12.70;65.88;101889.06;5005807;27;119724;-74
2022/10/09 01:11:31;;;;;;;;;;;;;;;12.64;65.78;101885.31;5003242;28;119967;-74
2022/10/09 01:14:02;;;;;;;;;;;;;;;12.59;66.16;101881.09;4992372;28;120779;-74
2022/10/09 01:16:29;;;;;;;;;;;;;;;12.55;65.85;101890.69;5007132;28;119793;-74
2022/10/09 01:18:58;;;;;;;;;;;;;;;12.52;65.97;101891.53;5007157;28;121228;-74
2022/10/09 01:21:33;;;;;;;;;;;;;;;12.49;65.77;101887.66;4977488;28;121918;-74
2022/10/09 01:24:20;;;;;;;;;;;;;;;12.46;66.17;101887.75;4997157;28;121308;-75
2022/10/09 01:27:04;;;;;;;;;;;;;;;12.43;66.15;101894.13;5003639;27;119748;-75
2022/10/09 01:29:36;;;;;;;;;;;;;;;12.38;66.03;101889.94;4994730;28;119412;-74
2022/10/09 01:32:03;;;;;;;;;;;;;;;12.33;66.03;101893.22;5013214;27;119519;-74
2022/10/09 01:34:30;;;;;;;;;;;;;;;12.30;66.21;101896.81;5009262;27;121201;-74
2022/10/09 01:36:56;;;;;;;;;;;;;;;12.25;65.69;101891.84;5008058;27;119686;-74
2022/10/09 01:39:22;;;;;;;;;;;;;;;12.20;65.82;101887.63;5000260;28;119721;-74
2022/10/09 01:41:50;;;;;;;;;;;;;;;12.18;66.04;101884.53;5014517;27;120088;-74
2022/10/09 01:44:20;;;;;;;;;;;;;;;12.16;65.87;101889.72;5008660;27;119770;-74
2022/10/09 01:46:46;;;;;;;;;;;;;;;12.15;66.28;101888.16;5008953;28;119568;-74
2022/10/09 01:49:34;;;;;;;;;;;;;;;12.14;66.33;101892.13;5005853;28;119905;-74
2022/10/09 01:52:12;;;;;;;;;;;;;;;12.13;66.18;101892.56;5000080;28;119158;-74
2022/10/09 01:54:37;;;;;;;;;;;;;;;12.11;66.28;101895.75;5006936;28;119200;-74
2022/10/09 01:57:05;;;;;;;;;;;;;;;12.10;66.23;101890.66;5009102;28;120044;-74
2022/10/09 01:59:35;;;;;;;;;;;;;;;12.08;66.33;101887.56;5007948;28;119968;-74
2022/10/09 02:02:00;;;;;;;;;;;;;;;12.08;66.36;101888.34;5008182;28;120898;-74
2022/10/09 02:04:28;;;;;;;;;;;;;;;12.08;66.05;101884.84;5004896;27;119437;-74
2022/10/09 02:06:53;;;;;;;;;;;;;;;12.06;66.04;101887.97;5008173;27;119277;-75
2022/10/09 02:09:20;;;;;;;;;;;;;;;12.05;66.06;101888.41;4999268;27;120245;-74
2022/10/09 02:11:50;;;;;;;;;;;;;;;12.02;66.07;101898.31;5002499;28;119986;-74
2022/10/09 02:14:16;;;;;;;;;;;;;;;11.99;66.15;101899.16;4997838;27;119434;-74
2022/10/09 02:16:44;;;;;;;;;;;;;;;11.97;66.32;101901.56;5005271;28;119326;-74
2022/10/09 02:19:12;;;;;;;;;;;;;;;11.96;66.40;101906.31;5005711;28;119442;-74
2022/10/09 02:21:38;;;;;;;;;;;;;;;11.97;66.33;101907.06;4997042;28;119795;-74
2022/10/09 02:24:05;;;;;;;;;;;;;;;11.96;66.19;101908.28;4996721;28;119280;-74
2022/10/09 02:26:31;;;;;;;;;;;;;;;11.94;66.46;101908.72;5007178;27;119441;-74
2022/10/09 02:28:57;;;;;;;;;;;;;;;11.93;66.52;101906.41;5006188;27;120057;-74
2022/10/09 02:31:25;;;;;;;;;;;;;;;11.92;66.50;101913.09;5011444;27;119733;-74
2022/10/09 02:33:57;;;;;;;;;;;;;;;11.89;66.47;101916.72;5002695;27;120328;-74
2022/10/09 02:36:23;;;;;;;;;;;;;;;11.87;66.32;101913.63;5006225;27;119455;-74
2022/10/09 02:38:49;;;;;;;;;;;;;;;11.87;66.61;101913.63;5011670;28;119268;-74
2022/10/09 02:41:15;;;;;;;;;;;;;;;11.88;66.65;101907.69;4995695;28;120116;-74
2022/10/09 02:43:40;;;;;;;;;;;;;;;11.90;66.71;101910.00;5001189;27;120246;-74
2022/10/09 02:46:06;;;;;;;;;;;;;;;11.90;66.65;101921.00;5000836;28;119806;-74
2022/10/09 02:48:31;;;;;;;;;;;;;;;11.92;66.58;101915.84;5003935;28;120669;-74
2022/10/09 02:50:58;;;;;;;;;;;;;;;11.91;66.47;101911.56;4997783;27;119805;-74
2022/10/09 02:53:23;;;;;;;;;;;;;;;11.92;66.51;101913.09;5004008;27;120151;-74
2022/10/09 02:55:49;;;;;;;;;;;;;;;11.93;66.33;101918.16;4983051;28;121860;-74
2022/10/09 02:58:14;;;;;;;;;;;;;;;11.91;66.26;101919.81;5001759;27;120214;-74
2022/10/09 03:00:40;;;;;;;;;;;;;;;11.89;66.71;101924.97;4992654;28;119998;-75
2022/10/09 03:03:05;;;;;;;;;;;;;;;11.89;66.47;101925.72;5003980;28;119739;-74
2022/10/09 03:05:31;;;;;;;;;;;;;;;11.88;66.25;101926.16;5001029;28;119977;-74
2022/10/09 03:07:57;;;;;;;;;;;;;;;11.87;66.33;101919.13;4999900;28;119822;-74
2022/10/09 03:10:23;;;;;;;;;;;;;;;11.87;66.25;101938.38;4984420;28;119396;-74
2022/10/09 03:12:48;;;;;;;;;;;;;;;11.85;66.61;101924.28;5004660;28;120032;-74
2022/10/09 03:15:14;;;;;;;;;;;;;;;11.85;66.34;101930.53;5006632;28;119842;-74
2022/10/09 03:17:40;;;;;;;;;;;;;;;11.83;66.52;101924.69;5001047;28;119644;-74
2022/10/09 03:20:06;;;;;;;;;;;;;;;11.84;66.67;101930.97;5003819;28;119475;-74
2022/10/09 03:22:32;;;;;;;;;;;;;;;11.84;66.44;101923.50;5008571;27;119865;-74
2022/10/09 03:24:57;;;;;;;;;;;;;;;11.82;66.42;101925.09;5000186;28;120423;-74
2022/10/09 03:27:23;;;;;;;;;;;;;;;11.81;65.78;101926.31;5000113;28;120031;-74
2022/10/09 03:29:48;;;;;;;;;;;;;;;11.78;66.18;101924.38;5007178;28;119315;-74
2022/10/09 03:32:14;;;;;;;;;;;;;;;11.74;65.94;101935.47;5006092;28;120620;-74
2022/10/09 03:34:39;;;;;;;;;;;;;;;11.71;65.99;101933.59;4996388;28;122646;-74
2022/10/09 03:37:05;;;;;;;;;;;;;;;11.69;66.05;101941.47;4993011;28;119389;-74
2022/10/09 03:39:38;;;;;;;;;;;;;;;11.65;65.88;101936.06;4995475;27;119430;-74
2022/10/09 03:42:04;;;;;;;;;;;;;;;11.63;66.25;101940.44;5007329;27;119795;-74
2022/10/09 03:44:29;;;;;;;;;;;;;;;11.61;66.29;101940.88;5006587;28;120189;-74
2022/10/09 03:46:55;;;;;;;;;;;;;;;11.60;66.29;101944.81;5007343;28;119785;-74
2022/10/09 03:49:20;;;;;;;;;;;;;;;11.59;66.43;101950.72;5004785;28;119507;-74
2022/10/09 03:51:46;;;;;;;;;;;;;;;11.56;66.38;101941.38;4997724;28;119823;-74
2022/10/09 03:54:11;;;;;;;;;;;;;;;11.57;66.37;101939.38;5007652;27;119455;-74
2022/10/09 03:56:37;;;;;;;;;;;;;;;11.57;66.66;101951.16;5007843;28;120192;-74
2022/10/09 03:59:04;;;;;;;;;;;;;;;11.58;66.44;101944.44;5011985;27;119590;-74
2022/10/09 04:01:30;;;;;;;;;;;;;;;11.57;66.61;101956.66;5010110;27;119859;-74
2022/10/09 04:03:55;;;;;;;;;;;;;;;11.59;66.56;101947.97;5012329;27;119661;-74
2022/10/09 04:06:21;;;;;;;;;;;;;;;11.59;66.70;101954.28;4999348;28;119747;-74
2022/10/09 04:08:46;;;;;;;;;;;;;;;11.60;67.01;101961.31;5011393;28;119368;-74
2022/10/09 04:11:12;;;;;;;;;;;;;;;11.60;67.00;101955.81;5011459;28;119703;-74
2022/10/09 04:13:37;;;;;;;;;;;;;;;11.62;66.84;101964.41;4999684;27;119643;-74
2022/10/09 04:16:03;;;;;;;;;;;;;;;11.64;66.99;101962.00;5010375;28;119638;-74
2022/10/09 04:18:29;;;;;;;;;;;;;;;11.66;67.09;101964.31;5015955;27;119295;-74
2022/10/09 04:20:56;;;;;;;;;;;;;;;11.67;67.06;101958.41;5019059;27;119507;-74
2022/10/09 04:23:22;;;;;;;;;;;;;;;11.69;67.04;101955.22;5010143;28;119769;-74
2022/10/09 04:25:51;;;;;;;;;;;;;;;11.72;67.15;101967.34;5009429;28;119600;-74
2022/10/09 04:28:27;;;;;;;;;;;;;;;11.72;66.99;101959.09;5010324;28;119496;-74
2022/10/09 04:30:52;;;;;;;;;;;;;;;11.72;67.23;101956.34;5004871;28;119357;-74
2022/10/09 04:33:18;;;;;;;;;;;;;;;11.72;66.89;101959.88;4994627;28;120586;-74
2022/10/09 04:35:44;;;;;;;;;;;;;;;11.74;67.24;101954.72;5008027;28;119437;-74
2022/10/09 04:38:30;;;;;;;;;;;;;;;11.73;66.93;101961.41;4983239;28;119794;-74
2022/10/09 04:41:00;;;;;;;;;;;;;;;11.73;67.20;101960.63;5008610;28;119780;-74
2022/10/09 04:43:26;;;;;;;;;;;;;;;11.73;67.37;101966.13;5007725;28;119318;-74
2022/10/09 04:45:52;;;;;;;;;;;;;;;11.73;67.35;101961.41;5008732;27;119608;-74
2022/10/09 04:48:17;;;;;;;;;;;;;;;11.73;67.36;101963.38;5011306;28;119795;-74
2022/10/09 04:50:43;;;;;;;;;;;;;;;11.72;67.42;101956.34;5005830;28;119439;-74
2022/10/09 04:53:08;;;;;;;;;;;;;;;11.74;67.43;101970.44;5002288;27;119903;-74
2022/10/09 04:55:38;;;;;;;;;;;;;;;11.76;67.25;101959.78;5002344;27;119515;-74
2022/10/09 04:58:04;;;;;;;;;;;;;;;11.75;67.38;101961.00;5003956;28;121161;-74
2022/10/09 05:00:32;;;;;;;;;;;;;;;11.74;66.94;101960.22;5004004;28;119973;-74
2022/10/09 05:02:58;;;;;;;;;;;;;;;11.74;67.03;101960.22;5025438;27;119545;-74
2022/10/09 05:05:24;;;;;;;;;;;;;;;11.74;67.10;101959.44;5010707;27;119162;-74
2022/10/09 05:07:49;;;;;;;;;;;;;;;11.74;67.30;101965.72;5006842;28;121602;-74
2022/10/09 05:10:15;;;;;;;;;;;;;;;11.74;67.15;101970.44;5011137;28;119979;-74
2022/10/09 05:12:40;;;;;;;;;;;;;;;11.72;67.00;101970.88;4999290;28;120133;-74
2022/10/09 05:15:06;;;;;;;;;;;;;;;11.73;67.19;101974.38;5010502;27;119160;-74
2022/10/09 05:17:32;;;;;;;;;;;;;;;11.71;67.19;101971.28;5011112;28;119585;-74
2022/10/09 05:19:57;;;;;;;;;;;;;;;11.71;67.50;101971.28;5010235;28;119915;-73
2022/10/09 05:22:23;;;;;;;;;;;;;;;11.74;67.51;101973.19;5007631;27;119764;-74
2022/10/09 05:24:49;;;;;;;;;;;;;;;11.76;67.60;101976.28;5010417;27;119664;-74
2022/10/09 05:27:14;;;;;;;;;;;;;;;11.77;67.70;101980.56;4996480;28;119921;-73
2022/10/09 05:29:40;;;;;;;;;;;;;;;11.78;67.48;101976.63;5013629;28;120619;-74
2022/10/09 05:32:05;;;;;;;;;;;;;;;11.77;67.41;101980.56;5008584;28;121851;-73
2022/10/09 05:34:40;;;;;;;;;;;;;;;11.77;67.47;101989.59;5005485;28;119574;-74
2022/10/09 05:37:05;;;;;;;;;;;;;;;11.78;67.15;101990.38;5005735;28;119513;-74
2022/10/09 05:39:31;;;;;;;;;;;;;;;11.77;67.23;101978.59;4997011;27;120054;-73
2022/10/09 05:41:57;;;;;;;;;;;;;;;11.79;67.34;101989.19;4993092;28;119564;-73
2022/10/09 05:44:23;;;;;;;;;;;;;;;11.81;67.56;101986.78;5010195;28;119567;-74
2022/10/09 05:46:48;;;;;;;;;;;;;;;11.81;67.51;101984.03;5007430;28;119842;-74
2022/10/09 05:49:40;;;;;;;;;;;;;;;11.81;67.55;101993.06;4978889;28;119422;-74
2022/10/09 05:52:05;;;;;;;;;;;;;;;11.83;67.77;101978.88;5017073;27;119573;-73
2022/10/09 05:54:31;;;;;;;;;;;;;;;11.83;67.78;101987.94;5011015;27;119474;-73
2022/10/09 05:56:57;;;;;;;;;;;;;;;11.85;67.64;101998.50;5002000;28;119227;-74
2022/10/09 05:59:25;;;;;;;;;;;;;;;11.86;67.88;101989.84;5004596;28;119358;-73
2022/10/09 06:01:52;;;;;;;;;;;;;;;11.88;67.80;101992.16;5025777;27;119906;-74
2022/10/09 06:04:19;;;;;;;;;;;;;;;11.90;67.98;101996.03;5001724;28;119623;-74
2022/10/09 06:06:47;;;;;;;;;;;;;;;11.90;67.90;101992.50;5007953;27;119304;-74
2022/10/09 06:09:13;;;;;;;;;;;;;;;11.89;67.76;102002.72;5000394;28;120120;-74
2022/10/09 06:11:39;;;;;;;;;;;;;;;11.91;67.72;101994.03;5009302;28;119163;-74
2022/10/09 06:14:06;;;;;;;;;;;;;;;11.96;67.80;102010.03;5009199;28;119705;-74
2022/10/09 06:16:36;;;;;;;;;;;;;;;11.98;67.75;101994.66;5021852;27;119516;-74
2022/10/09 06:19:02;;;;;;;;;;;;;;;12.03;67.85;101996.09;5002563;27;119903;-74
2022/10/09 06:21:28;;;;;;;;;;;;;;;12.06;67.77;102000.75;5009547;28;119502;-74
2022/10/09 06:23:55;;;;;;;;;;;;;;;12.08;67.67;101997.59;4996415;28;120050;-74
2022/10/09 06:26:22;;;;;;;;;;;;;;;12.08;67.48;102003.88;5007267;27;119855;-74
2022/10/09 06:28:47;;;;;;;;;;;;;;;12.09;67.89;102005.41;5006507;28;119891;-74
2022/10/09 06:31:14;;;;;;;;;;;;;;;12.11;67.99;101999.47;4994495;28;119108;-74
2022/10/09 06:33:41;;;;;;;;;;;;;;;12.14;67.76;102010.41;5005656;28;118739;-74
2022/10/09 06:36:28;;;;;;;;;;;;;;;12.18;67.86;102010.31;4993941;28;120056;-74
2022/10/09 06:38:53;;;;;;;;;;;;;;;12.22;68.00;102011.00;5003740;28;119317;-74
2022/10/09 06:41:24;;;;;;;;;;;;;;;12.23;67.61;102013.31;5004320;28;120002;-74
2022/10/09 06:43:50;;;;;;;;;;;;;;;12.24;68.20;102014.88;4972684;28;120506;-74
2022/10/09 06:46:16;;;;;;;;;;;;;;;12.27;68.09;102018.72;4990686;28;119499;-74
2022/10/09 06:48:42;;;;;;;;;;;;;;;12.31;68.05;102015.91;5016190;27;119720;-74
2022/10/09 06:51:15;;;;;;;;;;;;;;;12.36;68.16;102018.16;5006301;28;120261;-74
2022/10/09 06:53:45;;;;;;;;;;;;;;;12.40;68.23;102018.84;5004028;28;140720;-74
2022/10/09 06:56:10;;;;;;;;;;;;;;;12.45;68.33;102018.31;5001126;27;119818;-74
2022/10/09 06:58:37;;;;;;;;;;;;;;;12.48;68.50;102026.47;5007292;27;119625;-74
2022/10/09 07:01:13;;;;;;;;;;;;;;;12.53;68.39;102020.44;5000269;27;119494;-74
2022/10/09 07:03:40;;;;;;;;;;;;;;;12.60;68.61;102019.50;4998059;27;119738;-74
2022/10/09 07:06:08;;;;;;;;;;;;;;;12.66;68.45;102017.78;4999550;27;119795;-74
2022/10/09 07:08:34;;;;;;;;;;;;;;;12.72;68.48;102024.31;4999255;27;120099;-74
2022/10/09 07:11:06;;;;;;;;;;;;;;;12.75;68.31;102022.66;5001666;27;119802;-73
2022/10/09 07:13:31;;;;;;;;;;;;;;;12.78;68.45;102022.59;4998867;27;120618;-74
2022/10/09 07:15:57;;;;;;;;;;;;;;;12.84;68.50;102022.84;4999644;27;120252;-74
2022/10/09 07:18:22;;;;;;;;;;;;;;;12.89;68.55;102034.09;5001386;28;119945;-74
2022/10/09 07:20:48;;;;;;;;;;;;;;;12.98;68.48;102027.19;5009572;28;119464;-74
2022/10/09 07:23:13;;;;;;;;;;;;;;;13.07;68.76;102030.88;4997437;27;119946;-74
2022/10/09 07:25:39;;;;;;;;;;;;;;;13.18;68.49;102030.59;5000404;28;122815;-74
2022/10/09 07:28:04;;;;;;;;;;;;;;;13.25;68.78;102035.94;4995420;28;119314;-74
2022/10/09 07:30:30;;;;;;;;;;;;;;;13.35;68.89;102032.09;4993832;27;120441;-74
2022/10/09 07:32:55;;;;;;;;;;;;;;;13.39;68.41;102038.28;5001931;27;119946;-73
2022/10/09 07:35:24;;;;;;;;;;;;;;;13.45;68.44;102047.53;5000633;27;119520;-74
2022/10/09 07:37:52;;;;;;;;;;;;;;;13.50;68.75;102046.25;4988773;28;119741;-74
2022/10/09 07:40:20;;;;;;;;;;;;;;;13.58;68.56;102046.81;5011736;27;120050;-74
2022/10/09 07:42:46;;;;;;;;;;;;;;;13.68;69.04;102051.25;5001377;28;119999;-74
2022/10/09 07:45:11;;;;;;;;;;;;;;;13.80;69.19;102053.25;4994393;27;120543;-74
2022/10/09 07:47:37;;;;;;;;;;;;;;;13.90;69.06;102057.66;5002114;27;119466;-74
2022/10/09 07:50:03;;;;;;;;;;;;;;;14.00;69.18;102062.09;5008127;28;120823;-74
2022/10/09 07:52:28;;;;;;;;;;;;;;;14.12;69.31;102066.06;5008006;28;120017;-74
2022/10/09 07:55:14;;;;;;;;;;;;;;;14.25;68.93;102066.09;5008725;28;119565;-74
2022/10/09 07:57:40;;;;;;;;;;;;;;;14.31;69.06;102064.31;5008069;27;118984;-74
2022/10/09 08:00:06;;;;;;;;;;;;;;;14.38;69.09;102058.56;5005944;27;119434;-74
2022/10/09 08:02:38;;;;;;;;;;;;;;;14.48;68.76;102068.53;5028502;27;119852;-74
2022/10/09 08:05:03;;;;;;;;;;;;;;;14.58;68.97;102070.16;5009154;28;119866;-74
2022/10/09 08:08:01;;;;;;;;;;;;;;;14.71;69.43;102070.91;5000399;28;119976;-74
2022/10/09 08:10:30;;;;;;;;;;;;;;;14.81;68.87;102071.78;4988836;28;119544;-73
2022/10/09 08:12:56;;;;;;;;;;;;;;;14.90;68.60;102076.59;4985942;28;120910;-74
2022/10/09 08:15:21;;;;;;;;;;;;;;;14.97;69.01;102076.38;5009126;27;119501;-74
2022/10/09 08:17:53;;;;;;;;;;;;;;;15.09;68.73;102066.50;4998664;28;119406;-74
2022/10/09 08:20:19;;;;;;;;;;;;;;;15.18;68.70;102075.66;5005496;27;119858;-74
2022/10/09 08:22:44;;;;;;;;;;;;;;;15.33;68.81;102073.13;5019034;27;119945;-74
2022/10/09 08:25:10;;;;;;;;;;;;;;;15.45;68.72;102074.31;4981369;28;119484;-74
2022/10/09 08:27:36;;;;;;;;;;;;;;;15.57;68.36;102079.75;5004206;28;119657;-74
2022/10/09 08:30:01;;;;;;;;;;;;;;;15.69;68.42;102080.94;5006573;27;119871;-74
2022/10/09 08:32:27;;;;;;;;;;;;;;;15.81;68.72;102088.38;4997883;28;120642;-74
2022/10/09 08:34:52;;;;;;;;;;;;;;;15.90;68.30;102082.91;5007395;27;119824;-74
2022/10/09 08:37:18;;;;;;;;;;;;;;;15.99;68.11;102084.19;5003861;27;119524;-73
2022/10/09 08:39:43;;;;;;;;;;;;;;;16.07;68.29;102077.13;5002175;27;120255;-75
2022/10/09 08:42:35;;;;;;;;;;;;;;;16.13;68.32;102081.63;5007121;27;120583;-73
2022/10/09 08:45:01;;;;;;;;;;;;;;;16.19;67.87;102068.75;5022617;27;120109;-73
2022/10/09 08:47:36;;;;;;;;;;;;;;;16.26;68.13;102073.22;5007023;27;119430;-75
2022/10/09 08:50:10;;;;;;;;;;;;;;;16.32;68.34;102071.38;5005202;28;119758;-75
2022/10/09 08:52:36;;;;;;;;;;;;;;;16.41;67.99;102076.97;5005281;27;120191;-75
2022/10/09 08:55:31;;;;;;;;;;;;;;;16.47;67.98;102071.59;5007073;28;119509;-76
2022/10/09 08:58:00;;;;;;;;;;;;;;;16.56;68.04;102082.69;4986634;28;119921;-75
2022/10/09 09:00:28;;;;;;;;;;;;;;;16.62;67.90;102069.03;4996208;28;119919;-73
2022/10/09 09:03:13;;;;;;;;;;;;;;;16.70;67.83;102073.06;5001036;27;120037;-73
2022/10/09 09:05:59;;;;;;;;;;;;;;;16.77;67.96;102067.22;5006925;27;119456;-73
2022/10/09 09:08:28;;;;;;;;;;;;;;;16.87;67.96;102066.78;5004088;28;121194;-74
2022/10/09 09:10:57;;;;;;;;;;;;;;;16.98;67.76;102077.41;5020769;27;119839;-73
2022/10/09 09:13:37;;;;;;;;;;;;;;;17.09;67.70;102068.63;5000848;27;119492;-73
2022/10/09 09:16:05;;;;;;;;;;;;;;;17.18;67.48;102074.94;5023520;27;119708;-73
2022/10/09 09:18:38;;;;;;;;;;;;;;;17.29;67.33;102076.50;5005621;27;119621;-73
2022/10/09 09:21:10;;;;;;;;;;;;;;;17.38;67.22;102077.25;4998435;27;120066;-73
2022/10/09 09:23:50;;;;;;;;;;;;;;;17.45;66.82;102076.16;5007211;27;119259;-74
2022/10/09 09:26:37;;;;;;;;;;;;;;;17.47;66.51;102073.69;5019214;27;120822;-74
2022/10/09 09:29:03;;;;;;;;;;;;;;;17.49;66.47;102076.75;5006561;28;120964;-73
2022/10/09 09:31:35;;;;;;;;;;;;;;;17.48;66.42;102075.22;4998020;27;120101;-73
2022/10/09 09:34:08;;;;;;;;;;;;;;;17.45;66.39;102076.16;5007817;28;119481;-74
2022/10/09 09:36:37;;;;;;;;;;;;;;;17.43;66.26;102075.84;4998323;27;119901;-73
2022/10/09 09:39:03;;;;;;;;;;;;;;;17.41;66.21;102081.09;5000871;27;120364;-74
2022/10/09 09:41:29;;;;;;;;;;;;;;;17.44;66.36;102074.63;5005176;28;120050;-74
2022/10/09 09:43:54;;;;;;;;;;;;;;;17.55;66.54;102069.38;5003674;27;119848;-73
2022/10/09 09:46:22;;;;;;;;;;;;;;;17.67;66.25;102073.97;5008584;27;119486;-74
2022/10/09 09:48:48;;;;;;;;;;;;;;;17.78;66.24;102071.50;4984378;27;119954;-74
2022/10/09 09:51:27;;;;;;;;;;;;;;;17.92;66.48;102077.63;5004821;28;119533;-74
2022/10/09 09:53:55;;;;;;;;;;;;;;;18.01;66.01;102067.25;5003342;28;119891;-74
2022/10/09 09:56:31;;;;;;;;;;;;;;;18.00;65.45;102068.50;5003475;27;119644;-74
2022/10/09 09:58:56;;;;;;;;;;;;;;;17.93;64.94;102059.72;5004931;28;120034;-74
2022/10/09 10:01:24;;;;;;;;;;;;;;;17.86;65.17;102057.28;4990512;28;119974;-74
2022/10/09 10:03:50;;;;;;;;;;;;;;;17.82;65.29;102056.69;5008520;28;119564;-73
2022/10/09 10:06:20;;;;;;;;;;;;;;;17.79;65.15;102059.16;5002086;27;119535;-73
2022/10/09 10:08:45;;;;;;;;;;;;;;;17.75;65.03;102055.78;5005194;28;119941;-73
2022/10/09 10:11:48;;;;;;;;;;;;;;;17.67;64.78;102049.00;5006514;27;119964;-73
2022/10/09 10:14:26;;;;;;;;;;;;;;;17.59;64.91;102044.22;5008432;28;120010;-74
2022/10/09 10:16:53;;;;;;;;;;;;;;;17.57;64.92;102052.25;5006730;27;119968;-74
2022/10/09 10:19:26;;;;;;;;;;;;;;;17.55;65.06;102043.63;5004236;27;119696;-74
2022/10/09 10:21:56;;;;;;;;;;;;;;;17.52;65.08;102042.56;5003116;28;119833;-73
2022/10/09 10:24:26;;;;;;;;;;;;;;;17.48;65.10;102036.38;5004855;28;119544;-74
2022/10/09 10:26:57;;;;;;;;;;;;;;;17.47;65.08;102034.84;5003108;28;119864;-74
2022/10/09 10:29:34;;;;;;;;;;;;;;;17.56;65.24;102040.38;5004916;28;120135;-74
2022/10/09 10:32:03;;;;;;;;;;;;;;;17.65;65.30;102037.56;5003903;27;119569;-73
2022/10/09 10:34:34;;;;;;;;;;;;;;;17.73;64.79;102036.03;5003282;27;120169;-74
2022/10/09 10:37:20;;;;;;;;;;;;;;;17.72;64.23;102045.59;5003948;27;120089;-74
2022/10/09 10:39:48;;;;;;;;;;;;;;;17.68;63.93;102035.91;5005889;27;119621;-73
2022/10/09 10:42:20;;;;;;;;;;;;;;;17.61;63.74;102036.97;5003507;28;119632;-73
2022/10/09 10:44:50;;;;;;;;;;;;;;;17.60;63.98;102040.22;5000832;27;120078;-73
2022/10/09 10:47:25;;;;;;;;;;;;;;;17.59;63.88;102024.81;5002787;27;120296;-74
2022/10/09 10:49:51;;;;;;;;;;;;;;;17.64;63.89;102027.72;5002670;27;119799;-73
2022/10/09 10:52:25;;;;;;;;;;;;;;;17.73;64.02;102024.16;5005021;28;119991;-74
2022/10/09 10:54:58;;;;;;;;;;;;;;;17.88;64.10;102022.28;5007251;27;120597;-74
2022/10/09 10:57:36;;;;;;;;;;;;;;;18.06;64.24;102021.44;5003065;28;121323;-73
2022/10/09 11:00:06;;;;;;;;;;;;;;;18.28;63.79;102026.72;5005780;28;119844;-73
2022/10/09 11:02:38;;;;;;;;;;;;;;;18.37;62.84;102030.19;5006916;28;120059;-73
2022/10/09 11:05:16;;;;;;;;;;;;;;;18.42;62.24;102029.53;5005147;27;119882;-73
2022/10/09 11:07:47;;;;;;;;;;;;;;;18.42;61.71;102029.53;5000282;27;119633;-73
2022/10/09 11:10:25;;;;;;;;;;;;;;;18.39;61.38;102024.94;5008255;27;120243;-73
2022/10/09 11:13:03;;;;;;;;;;;;;;;18.40;61.56;102029.25;4987408;28;119686;-73
2022/10/09 11:15:36;;;;;;;;;;;;;;;18.46;61.64;102028.63;5020062;27;120088;-73
2022/10/09 11:18:10;;;;;;;;;;;;;;;18.47;61.46;102025.38;5003171;27;119563;-73
2022/10/09 11:20:55;;;;;;;;;;;;;;;18.50;61.41;102027.19;5010056;27;120337;-73
2022/10/09 11:23:39;;;;;;;;;;;;;;;18.51;60.96;102031.50;4995363;28;121597;-73
2022/10/09 11:26:08;;;;;;;;;;;;;;;18.47;60.57;102025.38;5008769;28;120515;-73
2022/10/09 11:28:38;;;;;;;;;;;;;;;18.36;60.13;102014.78;5002594;28;120120;-73
2022/10/09 11:31:10;;;;;;;;;;;;;;;18.31;60.59;102018.19;5003120;27;119605;-73
2022/10/09 11:33:50;;;;;;;;;;;;;;;18.36;60.87;102014.78;5003851;28;120260;-73
2022/10/09 11:36:19;;;;;;;;;;;;;;;18.45;60.41;102010.38;5004700;28;119952;-74
2022/10/09 11:38:52;;;;;;;;;;;;;;;18.53;60.52;102011.59;5004019;28;119947;-74
2022/10/09 11:41:18;;;;;;;;;;;;;;;18.60;60.07;102014.75;5005244;27;120800;-73
2022/10/09 11:43:49;;;;;;;;;;;;;;;18.62;59.91;102003.97;5002365;27;120150;-73
2022/10/09 11:46:33;;;;;;;;;;;;;;;18.68;59.37;102002.06;5004068;28;120372;-74
2022/10/09 11:49:02;;;;;;;;;;;;;;;18.75;59.52;102005.75;5007768;28;119817;-73
2022/10/09 11:51:33;;;;;;;;;;;;;;;18.77;59.32;101998.47;5002396;28;120932;-73
2022/10/09 11:53:59;;;;;;;;;;;;;;;18.82;59.04;101995.03;5004545;28;120162;-73
2022/10/09 11:56:26;;;;;;;;;;;;;;;18.82;58.57;101999.81;5004310;28;120679;-73
2022/10/09 11:58:59;;;;;;;;;;;;;;;18.81;58.54;102001.81;5002504;27;120837;-73
2022/10/09 12:01:30;;;;;;;;;;;;;;;18.86;58.82;101995.59;5004145;28;119626;-73
2022/10/09 12:03:59;;;;;;;;;;;;;;;18.87;58.47;101997.13;5004899;28;120009;-73
2022/10/09 12:06:24;;;;;;;;;;;;;;;18.80;57.95;101988.41;5004313;28;119992;-74
2022/10/09 12:09:08;;;;;;;;;;;;;;;18.75;58.34;101989.84;5007828;28;119746;-73
2022/10/09 12:11:34;;;;;;;;;;;;;;;18.81;58.92;101990.69;5005727;28;119938;-73
2022/10/09 12:14:04;;;;;;;;;;;;;;;18.87;58.43;101979.69;5004177;28;119921;-73
2022/10/09 12:16:30;;;;;;;;;;;;;;;18.91;57.81;101975.47;5010348;27;120033;-74
2022/10/09 12:19:11;;;;;;;;;;;;;;;18.94;57.41;101971.00;4999816;27;120213;-74
2022/10/09 12:21:48;;;;;;;;;;;;;;;18.98;57.10;101968.78;4991307;28;119978;-73
2022/10/09 12:24:37;;;;;;;;;;;;;;;19.01;56.85;101957.47;4995145;27;119595;-73
2022/10/09 12:27:04;;;;;;;;;;;;;;;18.99;56.41;101959.19;5006976;27;119766;-73
2022/10/09 12:29:38;;;;;;;;;;;;;;;18.93;56.09;101958.34;5006860;27;119654;-73
2022/10/09 12:32:11;;;;;;;;;;;;;;;18.91;56.50;101953.22;5010721;28;119909;-73
2022/10/09 12:34:40;;;;;;;;;;;;;;;18.95;56.51;101953.06;5006791;27;119578;-74
2022/10/09 12:37:12;;;;;;;;;;;;;;;18.99;56.33;101953.63;5006410;27;120220;-74